Time;durP1;ratioP1;P1;durP2;ratioP2;P2;SDS_P1;SDS_P2;PMS_P1;PMS_P2;Temp;Humidity;BMP_temperature;BMP_pressure;BME280_temperature;BME280_humidity;BME280_pressure;Samples;Min_cycle;Max_cycle;Signal;HPM_P1;HPM_P2
2021/09/17 00:04:19;;;;;;;27.80;18.80;;;;;;;16.89;81.22;98211.85;462394;1189;108507;-42
2021/09/17 00:14:27;;;;;;;20.80;16.30;;;;;;;16.77;81.32;98211.75;462758;1190;95912;-40
2021/09/17 00:24:35;;;;;;;23.40;15.40;;;;;;;16.67;81.32;98211.70;462879;1189;109546;-43
2021/09/17 00:34:42;;;;;;;19.60;14.20;;;;;;;16.49;81.32;98209.84;462906;1189;109029;-40
2021/09/17 00:44:51;;;;;;;17.80;13.50;;;;;;;16.35;81.46;98204.45;462961;1189;95906;-41
2021/09/17 00:54:59;;;;;;;23.70;14.60;;;;;;;16.19;81.59;98205.83;463071;1190;109456;-41
2021/09/17 01:05:09;;;;;;;17.60;14.50;;;;;;;16.03;81.91;98196.10;462492;1189;108521;-41
2021/09/17 01:27:20;;;;;;;12.70;9.70;;;;;;;15.60;82.43;98179.88;463176;1189;95258;-41
2021/09/17 01:37:27;;;;;;;13.00;9.30;;;;;;;15.42;82.40;98181.36;463250;1189;108567;-41
2021/09/17 01:47:35;;;;;;;11.90;9.90;;;;;;;15.39;82.52;98175.50;462881;1191;95935;-42
2021/09/17 01:57:43;;;;;;;10.70;9.00;;;;;;;15.35;82.25;98174.77;462762;1189;107837;-41
2021/09/17 02:07:51;;;;;;;12.70;10.20;;;;;;;15.24;82.66;98163.58;462676;1189;108601;-41
2021/09/17 02:17:58;;;;;;;10.20;8.60;;;;;;;15.23;82.61;98158.30;463413;1188;95130;-41
2021/09/17 02:28:06;;;;;;;8.70;7.50;;;;;;;15.12;82.87;98157.90;463027;1189;108617;-44
2021/09/17 02:48:20;;;;;;;8.60;7.20;;;;;;;14.81;83.13;98152.10;463324;1189;109453;-41
2021/09/17 02:58:27;;;;;;;6.60;5.70;;;;;;;14.70;83.12;98152.77;462868;1190;108480;-41
2021/09/17 03:08:35;;;;;;;6.40;4.30;;;;;;;14.56;83.00;98151.59;463326;1189;96007;-42
2021/09/17 03:18:43;;;;;;;6.10;4.50;;;;;;;14.46;83.03;98142.66;463383;1189;107159;-41
2021/09/17 03:28:51;;;;;;;6.50;5.10;;;;;;;14.36;83.08;98134.42;463235;1190;96541;-43
2021/09/17 03:38:59;;;;;;;6.60;4.70;;;;;;;14.32;83.02;98139.32;462636;1190;109413;-41
2021/09/17 03:49:07;;;;;;;6.50;4.90;;;;;;;14.32;83.03;98137.63;462760;1190;108495;-41
2021/09/17 03:59:14;;;;;;;5.60;4.10;;;;;;;14.28;82.92;98141.35;462797;1191;95906;-42
2021/09/17 04:09:21;;;;;;;6.10;4.30;;;;;;;14.28;83.11;98144.21;463248;1192;107530;-43
2021/09/17 04:19:29;;;;;;;5.60;3.80;;;;;;;14.25;83.08;98153.41;463591;1189;95200;-42
2021/09/17 04:29:37;;;;;;;5.10;4.60;;;;;;;14.22;82.94;98160.59;463439;1190;109790;-42
2021/09/17 04:39:45;;;;;;;6.50;4.80;;;;;;;14.21;83.14;98170.39;463293;1189;108510;-44
2021/09/17 04:49:53;;;;;;;5.60;4.90;;;;;;;14.16;82.99;98163.60;463417;1190;96045;-42
2021/09/17 05:00:16;;;;;;;7.60;5.90;;;;;;;14.17;82.97;98152.13;462477;1190;108150;-42
2021/09/17 05:10:24;;;;;;;6.70;3.70;;;;;;;14.29;83.05;98160.23;463158;1190;108372;-43
2021/09/17 05:20:32;;;;;;;36.50;25.30;;;;;;;14.39;82.89;98162.56;463029;1190;96371;-42
2021/09/17 05:30:38;;;;;;;9.10;7.30;;;;;;;14.44;82.80;98151.96;463184;1190;108441;-41
2021/09/17 05:40:44;;;;;;;11.30;5.70;;;;;;;14.50;82.71;98159.85;462823;1190;95879;-42
2021/09/17 05:50:52;;;;;;;16.70;13.60;;;;;;;14.59;82.76;98156.59;463318;1189;108514;-42
2021/09/17 06:00:58;;;;;;;11.00;5.80;;;;;;;14.56;82.73;98157.48;463261;1190;108482;-43
2021/09/17 06:11:06;;;;;;;6.20;4.70;;;;;;;14.55;82.55;98143.55;463259;1188;95903;-42
2021/09/17 06:21:13;;;;;;;18.80;10.80;;;;;;;14.69;82.70;98133.33;462818;1190;108492;-42
2021/09/17 06:31:21;;;;;;;8.20;6.40;;;;;;;14.75;82.51;98135.71;463192;1190;97926;-42
2021/09/17 06:41:33;;;;;;;7.90;4.90;;;;;;;14.63;82.49;98139.61;463352;1189;110789;-41
2021/09/17 06:51:41;;;;;;;7.80;4.90;;;;;;;14.59;82.24;98135.19;463159;1190;108484;-42
2021/09/17 07:01:49;;;;;;;4.50;3.60;;;;;;;14.72;82.45;98129.98;463318;1189;97671;-42
2021/09/17 07:12:00;;;;;;;3.50;2.30;;;;;;;14.80;82.44;98132.67;463358;1190;112750;-42
2021/09/17 07:22:08;;;;;;;2.80;2.60;;;;;;;15.02;82.43;98129.16;463268;1190;108044;-43
2021/09/17 07:32:15;;;;;;;4.60;3.90;;;;;;;15.25;82.22;98134.16;463119;1190;97671;-43
2021/09/17 07:42:22;;;;;;;6.30;5.60;;;;;;;15.40;82.45;98129.52;463314;1190;108450;-42
2021/09/17 07:52:30;;;;;;;8.80;6.30;;;;;;;15.59;82.17;98133.88;463321;1190;97287;-42
2021/09/17 08:02:37;;;;;;;7.10;6.40;;;;;;;15.97;82.11;98137.63;463191;1190;109788;-41
2021/09/17 08:12:50;;;;;;;8.50;7.50;;;;;;;16.27;81.94;98140.13;463343;1190;108660;-42
2021/09/17 08:22:57;;;;;;;10.50;9.40;;;;;;;16.03;81.80;98143.73;463166;1190;98442;-42
2021/09/17 08:33:04;;;;;;;9.80;8.60;;;;;;;15.99;81.75;98141.51;463291;1189;109858;-43
2021/09/17 08:43:12;;;;;;;10.70;8.50;;;;;;;16.29;81.68;98135.22;463249;1190;108524;-41
2021/09/17 08:53:19;;;;;;;11.10;7.80;;;;;;;16.36;81.46;98138.02;463168;1190;97248;-40
2021/09/17 09:03:27;;;;;;;8.60;7.20;;;;;;;16.51;81.44;98137.39;463207;1190;108652;-41
2021/09/17 09:13:35;;;;;;;10.20;8.20;;;;;;;16.90;81.45;98133.90;463437;1190;96289;-42
2021/09/17 09:23:43;;;;;;;10.60;7.60;;;;;;;17.40;81.24;98139.63;463231;1190;108597;-42
2021/09/17 09:33:52;;;;;;;7.40;6.50;;;;;;;17.80;80.99;98130.85;463244;1189;107603;-41
2021/09/17 09:44:01;;;;;;;6.40;5.80;;;;;;;17.77;80.23;98131.15;463375;1190;97238;-42
2021/09/17 09:54:11;;;;;;;7.70;6.80;;;;;;;17.53;80.25;98125.93;463352;1190;110530;-44
2021/09/17 10:14:22;;;;;;;7.40;5.70;;;;;;;17.62;79.64;98124.23;463056;1190;108473;-41
2021/09/17 10:24:42;;;;;;;8.20;6.40;;;;;;;17.39;79.62;98126.76;463213;1190;97662;-41
2021/09/17 10:35:02;;;;;;;7.10;5.30;;;;;;;17.39;79.71;98125.91;462672;1184;108661;-42
2021/09/17 10:45:20;;;;;;;10.20;5.60;;;;;;;17.71;79.27;98115.98;463030;1190;97229;-42
2021/09/17 11:06:41;;;;;;;5.70;5.00;;;;;;;18.55;78.96;98096.09;463127;1190;108514;-42
2021/09/17 11:16:49;;;;;;;6.00;4.30;;;;;;;19.05;77.80;98094.34;461069;1184;108554;-41
2021/09/17 11:26:56;;;;;;;6.60;6.00;;;;;;;18.55;77.03;98098.58;461193;1193;98161;-42
2021/09/17 11:37:03;;;;;;;10.80;9.80;;;;;;;18.57;77.07;98094.46;461033;1192;108622;-42
2021/09/17 11:47:11;;;;;;;11.00;6.50;;;;;;;18.81;76.63;98085.65;462876;1190;107540;-42
2021/09/17 11:57:18;;;;;;;19.80;5.30;;;;;;;18.84;76.32;98081.78;462492;1189;97662;-42
2021/09/17 12:07:31;;;;;;;4.90;3.90;;;;;;;18.77;75.98;98086.34;463232;1189;108640;-41
2021/09/17 12:27:55;;;;;;;4.20;3.80;;;;;;;17.87;75.68;98102.61;463296;1190;110643;-42
2021/09/17 12:38:06;;;;;;;5.60;3.20;;;;;;;17.55;75.94;98112.44;463084;1190;108452;-41
2021/09/17 12:48:15;;;;;;;5.30;3.80;;;;;;;17.42;76.09;98114.21;463006;1189;97250;-42
2021/09/17 12:58:23;;;;;;;5.40;4.00;;;;;;;17.29;76.07;98110.73;463018;1189;108535;-42
2021/09/17 13:08:30;;;;;;;3.60;3.30;;;;;;;17.34;76.46;98101.15;463189;1189;97106;-44
2021/09/17 13:18:38;;;;;;;4.00;3.70;;;;;;;17.49;76.48;98104.72;462605;1189;110665;-42
2021/09/17 13:28:46;;;;;;;3.80;3.40;;;;;;;17.53;76.33;98097.12;462859;1190;108301;-42
2021/09/17 13:38:54;;;;;;;3.00;2.80;;;;;;;17.75;75.90;98089.70;462431;1189;108486;-42
2021/09/17 13:49:01;;;;;;;6.00;4.10;;;;;;;17.83;75.27;98089.69;463152;1190;97599;-41
2021/09/17 13:59:09;;;;;;;7.00;4.50;;;;;;;17.91;75.17;98083.89;462241;1189;108531;-42
2021/09/17 14:09:16;;;;;;;4.40;4.10;;;;;;;17.96;74.76;98082.27;462765;1174;97732;-40
2021/09/17 14:19:24;;;;;;;3.90;3.40;;;;;;;17.87;74.58;98086.09;463283;1189;97274;-41
2021/09/17 14:29:32;;;;;;;7.30;3.00;;;;;;;17.88;74.82;98081.27;462323;1189;108912;-41
2021/09/17 14:39:39;;;;;;;4.00;3.70;;;;;;;17.75;74.76;98081.34;462681;1189;97848;-41
2021/09/17 14:49:47;;;;;;;7.00;5.20;;;;;;;17.46;74.71;98075.77;462876;1190;98385;-41
2021/09/17 14:59:54;;;;;;;5.10;3.70;;;;;;;17.26;74.79;98071.92;462481;1189;109811;-41
2021/09/17 15:10:02;;;;;;;2.00;1.70;;;;;;;17.06;74.91;98076.33;462935;1190;108290;-41
2021/09/17 15:20:12;;;;;;;5.00;2.60;;;;;;;16.92;74.99;98077.60;462988;1190;97831;-41
2021/09/17 15:30:18;;;;;;;3.80;3.10;;;;;;;16.74;75.01;98077.95;463035;1190;109801;-42
2021/09/17 15:40:26;;;;;;;5.60;2.60;;;;;;;16.41;74.82;98081.66;462699;1189;107491;-41
2021/09/17 15:50:34;;;;;;;3.50;2.20;;;;;;;16.23;74.77;98080.95;462597;1190;97259;-42
2021/09/17 16:00:44;;;;;;;4.30;2.40;;;;;;;16.15;75.09;98085.41;462858;1190;110837;-43
2021/09/17 16:10:51;;;;;;;6.00;4.10;;;;;;;16.14;75.40;98096.98;463006;1190;107553;-41
2021/09/17 16:20:56;;;;;;;6.30;4.40;;;;;;;16.08;75.45;98096.32;462809;1189;98350;-43
2021/09/17 16:31:03;;;;;;;5.10;3.60;;;;;;;15.85;75.49;98104.90;463013;1190;108384;-42
2021/09/17 16:41:15;;;;;;;5.10;3.30;;;;;;;15.36;75.90;98108.17;463002;1189;108588;-42
2021/09/17 16:51:23;;;;;;;3.80;3.00;;;;;;;15.09;76.16;98106.77;462658;1183;97231;-41
2021/09/17 17:01:30;;;;;;;6.00;3.50;;;;;;;14.88;76.72;98105.34;462812;1189;110801;-42
2021/09/17 17:11:38;;;;;;;6.20;3.90;;;;;;;14.76;76.94;98107.98;463003;1190;108758;-41
2021/09/17 17:21:46;;;;;;;4.20;2.90;;;;;;;14.63;77.21;98111.13;462695;1190;97665;-42
2021/09/17 17:31:53;;;;;;;4.70;2.80;;;;;;;14.56;77.60;98123.02;462763;1189;107471;-42
2021/09/17 17:41:59;;;;;;;12.30;5.00;;;;;;;14.53;77.63;98128.98;463194;1190;97677;-43
2021/09/17 17:52:08;;;;;;;5.30;4.40;;;;;;;14.51;77.90;98132.39;462649;1190;111051;-43
2021/09/17 18:02:18;;;;;;;4.90;3.70;;;;;;;14.47;77.85;98131.16;463001;1190;107232;-43
2021/09/17 18:12:26;;;;;;;4.90;3.70;;;;;;;14.37;78.07;98135.97;463264;1190;97539;-40
2021/09/17 18:22:33;;;;;;;6.70;4.20;;;;;;;14.38;78.25;98141.23;462826;1190;108459;-42
2021/09/17 18:32:42;;;;;;;4.60;3.80;;;;;;;14.36;78.37;98144.10;463171;1189;97240;-41
2021/09/17 18:42:49;;;;;;;4.80;3.40;;;;;;;14.32;78.38;98147.04;462998;1190;109707;-41
2021/09/17 18:52:57;;;;;;;3.40;2.70;;;;;;;14.35;78.60;98148.46;462637;1190;108327;-42
2021/09/17 19:03:05;;;;;;;9.90;3.20;;;;;;;14.37;78.65;98151.55;463174;1190;96299;-41
2021/09/17 19:25:00;;;;;;;5.10;3.10;;;;;;;14.28;78.62;98151.19;462600;1190;97806;-43
2021/09/17 19:35:08;;;;;;;6.20;4.10;;;;;;;14.26;78.82;98155.55;463040;1190;111235;-41
2021/09/17 19:45:17;;;;;;;3.70;3.40;;;;;;;14.20;78.86;98154.79;462985;1190;108487;-41
2021/09/17 19:55:24;;;;;;;4.20;2.80;;;;;;;14.13;79.05;98157.38;462691;1190;97672;-41
2021/09/17 20:05:32;;;;;;;5.60;4.00;;;;;;;14.12;79.09;98158.13;462604;1190;108428;-42
2021/09/17 20:15:38;;;;;;;5.20;3.10;;;;;;;14.07;79.08;98162.00;463097;1190;97658;-41
2021/09/17 20:25:45;;;;;;;3.80;3.20;;;;;;;14.06;79.23;98156.16;462692;1189;110837;-41
2021/09/17 20:46:01;;;;;;;3.90;3.40;;;;;;;14.03;79.47;98159.50;462637;1190;97233;-41
2021/09/17 20:56:08;;;;;;;5.60;2.60;;;;;;;14.00;79.48;98157.32;462770;1190;108580;-41
2021/09/17 21:06:15;;;;;;;4.60;3.10;;;;;;;13.97;79.61;98153.70;462647;1190;96307;-41
2021/09/17 21:16:22;;;;;;;4.70;2.80;;;;;;;13.94;79.63;98151.02;462999;1181;110694;-41
2021/09/17 21:26:31;;;;;;;3.60;2.20;;;;;;;13.89;79.83;98149.73;463136;1189;108485;-43
2021/09/17 21:36:38;;;;;;;1.90;1.80;;;;;;;13.91;79.92;98149.42;462794;1190;97273;-42
2021/09/17 21:46:46;;;;;;;3.90;3.50;;;;;;;13.86;79.96;98149.30;462936;1193;108594;-42
2021/09/17 21:56:53;;;;;;;3.90;3.50;;;;;;;13.87;80.25;98150.38;463004;1190;97672;-41
2021/09/17 22:07:01;;;;;;;4.70;2.90;;;;;;;13.89;80.16;98141.80;462662;1190;110770;-41
2021/09/17 22:17:08;;;;;;;4.00;3.00;;;;;;;13.81;80.19;98138.08;462731;1190;108654;-41
2021/09/17 22:27:13;;;;;;;3.20;2.50;;;;;;;13.77;80.45;98134.57;462950;1190;96716;-40
2021/09/17 22:37:21;;;;;;;3.50;2.50;;;;;;;13.77;80.51;98131.86;462570;1189;108495;-41
2021/09/17 22:47:28;;;;;;;2.10;1.90;;;;;;;13.79;80.71;98130.38;462760;1190;97270;-42
2021/09/17 22:57:34;;;;;;;3.30;2.60;;;;;;;13.80;80.72;98127.56;462771;1190;111884;-43
2021/09/17 23:07:42;;;;;;;2.50;2.30;;;;;;;13.71;80.77;98126.52;462885;1193;108567;-41
2021/09/17 23:17:48;;;;;;;2.10;1.90;;;;;;;13.69;81.02;98120.55;463106;1190;97684;-41
2021/09/17 23:27:56;;;;;;;1.80;1.60;;;;;;;13.66;81.15;98113.54;462989;1190;108485;-42
2021/09/17 23:38:04;;;;;;;2.20;1.30;;;;;;;13.64;81.27;98111.30;462504;1190;97668;-41
2021/09/17 23:48:11;;;;;;;1.50;0.80;;;;;;;13.65;81.30;98118.27;463017;1190;110951;-42
2021/09/17 23:58:19;;;;;;;1.30;0.50;;;;;;;13.54;81.36;98121.20;462722;1190;108523;-42
